createdAt,value
2024-05-09T00:00:54.959Z,12.00
2024-05-09T00:02:22.660Z,12.00
2024-05-09T00:03:25.730Z,12.17
2024-05-09T00:04:28.204Z,13.00
2024-05-09T00:05:30.743Z,13.00
2024-05-09T00:06:32.990Z,13.00
2024-05-09T00:07:36.862Z,13.00
2024-05-09T00:08:42.725Z,13.00
2024-05-09T00:09:46.814Z,13.00
2024-05-09T00:10:50.571Z,13.00
2024-05-09T00:11:54.604Z,13.00
2024-05-09T00:12:56.873Z,13.00
2024-05-09T00:14:03.057Z,13.00
2024-05-09T00:15:05.498Z,13.00
2024-05-09T00:16:09.544Z,13.00
2024-05-09T00:17:11.858Z,13.00
2024-05-09T00:18:18.137Z,13.67
2024-05-09T00:19:20.857Z,14.00
2024-05-09T00:20:42.719Z,14.00
2024-05-09T00:21:45.784Z,13.50
2024-05-09T00:22:48.204Z,13.00
2024-05-09T00:23:50.524Z,13.00
2024-05-09T00:24:59.344Z,13.00
2024-05-09T00:26:04.683Z,13.00
2024-05-09T00:27:07.605Z,13.00
2024-05-09T00:28:13.430Z,13.00
2024-05-09T00:29:16.221Z,13.00
2024-05-09T00:30:31.025Z,13.00
2024-05-09T00:31:38.645Z,13.00
2024-05-09T00:32:41.113Z,13.00
2024-05-09T00:33:44.816Z,13.00
2024-05-09T00:34:46.972Z,13.17
2024-05-09T00:35:49.293Z,14.00
2024-05-09T00:36:51.269Z,14.00
2024-05-09T00:37:55.178Z,14.00
2024-05-09T00:38:57.178Z,14.00
2024-05-09T00:40:31.207Z,14.00
2024-05-09T00:41:40.860Z,14.00
2024-05-09T00:42:46.363Z,14.00
2024-05-09T00:43:48.409Z,15.00
2024-05-09T00:44:50.744Z,15.00
2024-05-09T00:45:55.796Z,15.00
2024-05-09T00:46:58.711Z,15.00
2024-05-09T00:48:06.154Z,15.00
2024-05-09T00:49:11.670Z,15.17
2024-05-09T00:50:19.428Z,16.00
2024-05-09T00:51:28.404Z,16.00
2024-05-09T00:52:31.965Z,16.00
2024-05-09T00:53:53.526Z,16.00
2024-05-09T00:54:58.183Z,16.00
2024-05-09T00:56:00.598Z,16.00
2024-05-09T00:57:05.787Z,16.00
2024-05-09T00:58:11.336Z,16.00
2024-05-09T00:59:15.448Z,16.00
2024-05-09T01:00:26.601Z,16.00
2024-05-09T01:01:40.362Z,16.00
2024-05-09T01:02:45.838Z,16.00
2024-05-09T01:03:51.181Z,16.00
2024-05-09T01:04:54.675Z,16.00
2024-05-09T01:06:01.395Z,16.00
2024-05-09T01:07:04.671Z,16.00
2024-05-09T01:08:09.457Z,16.00
2024-05-09T01:09:14.903Z,16.00
2024-05-09T01:10:23.878Z,16.00
2024-05-09T01:11:40.768Z,16.00
2024-05-09T01:12:46.179Z,16.00
2024-05-09T01:13:51.628Z,16.00
2024-05-09T01:14:54.642Z,16.00
2024-05-09T01:15:57.164Z,16.00
2024-05-09T01:17:00.764Z,16.00
2024-05-09T01:18:08.960Z,16.00
2024-05-09T01:19:29.716Z,16.00
2024-05-09T01:20:40.346Z,16.00
2024-05-09T01:21:45.441Z,16.00
2024-05-09T01:22:53.239Z,16.00
2024-05-09T01:23:55.774Z,16.00
2024-05-09T01:24:57.996Z,16.00
2024-05-09T01:26:00.411Z,16.67
2024-05-09T01:27:02.992Z,17.00
2024-05-09T01:28:05.685Z,17.00
2024-05-09T01:29:08.090Z,17.00
2024-05-09T01:30:17.008Z,17.00
2024-05-09T01:31:24.642Z,17.00
2024-05-09T01:32:27.134Z,17.00
2024-05-09T01:33:31.418Z,17.00
2024-05-09T01:34:35.907Z,17.00
2024-05-09T01:35:42.792Z,17.00
2024-05-09T01:36:45.225Z,17.00
2024-05-09T01:37:48.035Z,17.00
2024-05-09T01:38:52.872Z,17.00
2024-05-09T01:39:58.700Z,17.00
2024-05-09T01:41:01.090Z,17.00
2024-05-09T01:42:03.750Z,17.00
2024-05-09T01:43:11.939Z,17.00
2024-05-09T01:44:16.659Z,17.00
2024-05-09T01:45:18.923Z,17.00
2024-05-09T01:46:21.160Z,17.00
2024-05-09T01:47:23.618Z,17.00
2024-05-09T01:48:26.067Z,17.00
2024-05-09T01:49:28.511Z,17.00
2024-05-09T01:50:37.689Z,17.00
2024-05-09T01:51:43.413Z,17.33
2024-05-09T01:52:47.476Z,18.00
2024-05-09T01:53:53.552Z,18.00
2024-05-09T01:54:57.460Z,18.00
2024-05-09T01:56:00.138Z,18.00
2024-05-09T01:57:02.465Z,18.00
2024-05-09T01:58:10.648Z,18.00
2024-05-09T01:59:13.264Z,18.00
2024-05-09T02:00:22.229Z,18.00
2024-05-09T02:01:56.097Z,18.33
2024-05-09T02:03:02.248Z,19.00
2024-05-09T02:04:06.126Z,19.00
2024-05-09T02:05:08.420Z,19.00
2024-05-09T02:06:12.734Z,19.00
2024-05-09T02:07:15.558Z,19.00
2024-05-09T02:08:22.128Z,19.00
2024-05-09T02:09:25.939Z,19.00
2024-05-09T02:10:32.506Z,19.00
2024-05-09T02:11:47.562Z,19.00
2024-05-09T02:13:17.500Z,19.00
2024-05-09T02:14:22.696Z,19.00
2024-05-09T02:15:24.982Z,19.83
2024-05-09T02:16:28.675Z,20.00
2024-05-09T02:17:31.307Z,20.00
2024-05-09T02:18:33.500Z,20.00
2024-05-09T02:19:35.787Z,20.00
2024-05-09T02:20:44.382Z,21.00
2024-05-09T02:21:47.294Z,21.00
2024-05-09T02:22:50.344Z,21.00
2024-05-09T02:23:52.914Z,21.50
2024-05-09T02:24:55.118Z,22.00
2024-05-09T02:25:57.498Z,22.00
2024-05-09T02:27:25.341Z,22.00
2024-05-09T02:28:27.660Z,22.00
2024-05-09T02:29:34.267Z,22.00
2024-05-09T02:30:42.690Z,22.00
2024-05-09T02:31:45.189Z,22.00
2024-05-09T02:32:48.759Z,22.00
2024-05-09T02:33:52.944Z,22.00
2024-05-09T02:34:55.430Z,22.00
2024-05-09T02:35:57.687Z,22.00
2024-05-09T02:37:25.142Z,22.33
2024-05-09T02:38:27.235Z,23.00
2024-05-09T02:39:29.539Z,23.00
2024-05-09T02:40:37.538Z,23.00
2024-05-09T02:41:43.741Z,23.00
2024-05-09T02:43:11.788Z,23.83
2024-05-09T02:44:14.915Z,24.00
2024-05-09T02:45:23.794Z,24.00
2024-05-09T02:46:26.801Z,24.00
2024-05-09T02:47:29.356Z,24.00
2024-05-09T02:48:31.822Z,24.00
2024-05-09T02:49:36.808Z,24.00
2024-05-09T02:50:54.451Z,24.67
2024-05-09T02:52:21.232Z,25.00
2024-05-09T02:53:23.710Z,25.00
2024-05-09T02:55:55.931Z,25.00
2024-05-09T02:57:00.474Z,25.00
2024-05-09T02:58:02.812Z,25.00
2024-05-09T02:59:04.952Z,25.00
2024-05-09T03:00:18.417Z,25.00
2024-05-09T03:01:24.980Z,25.00
2024-05-09T03:02:35.519Z,25.00
2024-05-09T03:03:43.676Z,25.00
2024-05-09T03:04:46.594Z,25.00
2024-05-09T03:05:50.797Z,25.00
2024-05-09T03:06:53.036Z,25.00
2024-05-09T03:07:55.264Z,25.00
2024-05-09T03:09:22.691Z,25.17
2024-05-09T03:10:29.049Z,26.00
2024-05-09T03:11:41.202Z,26.00
2024-05-09T03:12:45.167Z,26.00
2024-05-09T03:13:49.740Z,26.00
2024-05-09T03:14:54.071Z,26.00
2024-05-09T03:15:59.050Z,26.00
2024-05-09T03:17:03.245Z,26.00
2024-05-09T03:18:05.928Z,26.00
2024-05-09T03:19:12.729Z,27.00
2024-05-09T03:20:20.727Z,27.00
2024-05-09T03:21:27.336Z,27.00
2024-05-09T03:22:29.907Z,27.00
2024-05-09T03:23:33.259Z,27.00
2024-05-09T03:24:35.811Z,27.00
2024-05-09T03:25:37.899Z,27.00
2024-05-09T03:26:40.538Z,27.83
2024-05-09T03:27:43.716Z,28.00
2024-05-09T03:28:45.986Z,28.50
2024-05-09T03:29:52.461Z,29.00
2024-05-09T03:30:56.171Z,29.00
2024-05-09T03:31:59.831Z,29.00
2024-05-09T03:33:02.238Z,29.67
2024-05-09T03:34:05.983Z,30.00
2024-05-09T03:35:35.358Z,30.17
2024-05-09T03:36:42.034Z,31.00
2024-05-09T03:38:04.628Z,31.33
2024-05-09T03:39:11.676Z,35.67
2024-05-09T03:40:23.802Z,39.00
2024-05-09T03:41:28.880Z,40.67
2024-05-09T03:42:31.162Z,41.00
2024-05-09T03:43:35.909Z,41.00
2024-05-09T03:44:38.139Z,41.00
2024-05-09T03:46:00.615Z,41.00
2024-05-09T03:47:04.493Z,40.00
2024-05-09T03:48:07.319Z,40.00
2024-05-09T03:49:13.675Z,39.67
2024-05-09T03:50:33.729Z,39.00
2024-05-09T03:51:38.140Z,39.00
2024-05-09T03:52:54.937Z,39.67
2024-05-09T03:53:57.724Z,40.00
2024-05-09T03:55:05.928Z,40.00
2024-05-09T03:56:08.682Z,40.67
2024-05-09T03:57:11.104Z,41.00
2024-05-09T03:58:14.146Z,41.67
2024-05-09T03:59:17.215Z,42.00
2024-05-09T04:00:30.029Z,42.83
2024-05-09T04:01:37.654Z,44.00
2024-05-09T04:02:42.448Z,44.00
2024-05-09T04:03:45.146Z,44.00
2024-05-09T04:04:48.315Z,45.00
2024-05-09T04:05:50.947Z,45.00
2024-05-09T04:06:53.385Z,45.00
2024-05-09T04:07:55.620Z,45.00
2024-05-09T04:09:03.459Z,45.00
2024-05-09T04:10:11.142Z,47.50
2024-05-09T04:11:19.279Z,69.00
2024-05-09T04:12:21.617Z,64.50
2024-05-09T04:13:23.910Z,60.83
2024-05-09T04:14:34.160Z,58.50
2024-05-09T04:16:05.818Z,56.17
2024-05-09T04:17:11.733Z,51.83
2024-05-09T04:18:16.440Z,48.33
2024-05-09T04:19:23.179Z,45.50
2024-05-09T04:20:36.726Z,44.33
2024-05-09T04:21:49.642Z,43.00
2024-05-09T04:22:58.715Z,43.00
2024-05-09T04:24:00.933Z,43.00
2024-05-09T04:25:03.583Z,43.00
2024-05-09T04:26:07.971Z,43.83
2024-05-09T04:27:10.282Z,44.00
2024-05-09T04:28:15.681Z,44.00
2024-05-09T04:29:20.006Z,42.83
2024-05-09T04:30:34.683Z,42.00
2024-05-09T04:31:42.630Z,42.00
2024-05-09T04:32:45.243Z,42.00
2024-05-09T04:33:50.127Z,42.00
2024-05-09T04:34:56.686Z,42.00
2024-05-09T04:36:03.958Z,42.00
2024-05-09T04:37:06.010Z,42.00
2024-05-09T04:38:08.635Z,42.00
2024-05-09T04:39:10.932Z,42.67
2024-05-09T04:40:24.217Z,43.83
2024-05-09T04:41:58.413Z,44.00
2024-05-09T04:43:01.195Z,43.67
2024-05-09T04:44:03.753Z,43.00
2024-05-09T04:45:06.328Z,43.00
2024-05-09T04:46:08.557Z,43.00
2024-05-09T04:47:11.770Z,43.00
2024-05-09T04:48:15.224Z,43.00
2024-05-09T04:49:17.883Z,43.00
2024-05-09T04:50:29.330Z,43.00
2024-05-09T04:51:37.896Z,46.50
2024-05-09T04:52:40.215Z,54.33
2024-05-09T04:53:42.880Z,57.00
2024-05-09T04:54:46.419Z,57.83
2024-05-09T04:55:49.386Z,58.83
2024-05-09T04:56:51.662Z,57.83
2024-05-09T04:57:53.862Z,57.00
2024-05-09T04:58:57.741Z,56.50
2024-05-09T05:00:01.323Z,58.17
2024-05-09T05:01:28.525Z,59.00
2024-05-09T05:02:31.828Z,59.00
2024-05-09T05:03:36.970Z,59.00
2024-05-09T05:04:39.436Z,59.00
2024-05-09T05:05:43.392Z,59.17
2024-05-09T05:06:48.455Z,60.00
2024-05-09T05:07:50.891Z,60.00
2024-05-09T05:09:01.868Z,60.00
2024-05-09T05:10:05.838Z,64.50
2024-05-09T05:11:14.106Z,79.67
2024-05-09T05:12:36.235Z,81.67
2024-05-09T05:13:41.445Z,80.33
2024-05-09T05:14:45.772Z,80.83
2024-05-09T05:15:57.390Z,79.67
2024-05-09T05:17:26.616Z,79.83
2024-05-09T05:18:29.426Z,93.83
2024-05-09T05:19:32.125Z,94.17
2024-05-09T05:20:38.061Z,94.00
2024-05-09T05:21:44.662Z,93.67
2024-05-09T05:22:47.841Z,91.50
2024-05-09T05:23:53.774Z,91.17
2024-05-09T05:24:56.079Z,94.17
2024-05-09T05:25:58.084Z,97.83
2024-05-09T05:27:03.812Z,99.83
2024-05-09T05:28:06.784Z,106.00
2024-05-09T05:29:09.121Z,115.00
2024-05-09T05:30:17.639Z,120.83
2024-05-09T05:31:23.571Z,120.67
2024-05-09T05:32:26.941Z,123.50
2024-05-09T05:33:41.056Z,130.83
2024-05-09T05:34:43.184Z,140.33
2024-05-09T05:35:46.759Z,148.17
2024-05-09T05:36:49.356Z,148.50
2024-05-09T05:37:52.248Z,147.67
2024-05-09T05:38:55.325Z,151.50
2024-05-09T05:39:58.446Z,157.33
2024-05-09T05:41:00.802Z,164.17
2024-05-09T05:42:06.661Z,172.17
2024-05-09T05:43:15.925Z,175.33
2024-05-09T05:44:18.946Z,178.50
2024-05-09T05:45:21.407Z,182.17
2024-05-09T05:46:23.622Z,183.00
2024-05-09T05:47:26.049Z,183.33
2024-05-09T05:48:33.526Z,191.67
2024-05-09T05:49:35.973Z,201.83
2024-05-09T05:50:38.910Z,201.50
2024-05-09T05:51:41.522Z,198.17
2024-05-09T05:52:43.798Z,194.50
2024-05-09T05:53:46.253Z,194.33
2024-05-09T05:54:48.540Z,195.67
2024-05-09T05:55:52.589Z,197.50
2024-05-09T05:56:56.559Z,195.00
2024-05-09T05:58:00.836Z,194.00
2024-05-09T05:59:03.133Z,195.50
2024-05-09T06:00:17.989Z,197.67
2024-05-09T06:01:28.034Z,199.17
2024-05-09T06:02:31.548Z,206.50
2024-05-09T06:03:34.114Z,208.50
2024-05-09T06:04:36.552Z,206.00
2024-05-09T06:05:39.018Z,204.67
2024-05-09T06:06:43.577Z,213.83
2024-05-09T06:07:48.662Z,230.50
2024-05-09T06:08:51.397Z,230.33
2024-05-09T06:09:54.615Z,224.50
2024-05-09T06:10:57.147Z,225.00
2024-05-09T06:11:59.553Z,231.00
2024-05-09T06:13:01.800Z,229.50
2024-05-09T06:14:04.434Z,225.67
2024-05-09T06:15:06.961Z,223.50
2024-05-09T06:16:09.473Z,220.17
2024-05-09T06:17:12.079Z,219.00
2024-05-09T06:18:17.069Z,218.67
2024-05-09T06:19:19.574Z,217.50
2024-05-09T06:20:27.836Z,216.00
2024-05-09T06:21:36.981Z,216.83
2024-05-09T06:22:39.258Z,221.00
2024-05-09T06:23:48.936Z,223.83
2024-05-09T06:24:51.742Z,224.33
2024-05-09T06:25:54.084Z,223.50
2024-05-09T06:26:56.373Z,222.50
2024-05-09T06:28:02.531Z,221.33
2024-05-09T06:29:05.837Z,219.50
2024-05-09T06:30:14.451Z,214.50
2024-05-09T06:31:23.315Z,208.33
2024-05-09T06:32:25.675Z,205.17
2024-05-09T06:33:28.406Z,200.50
2024-05-09T06:34:35.328Z,197.00
2024-05-09T06:35:38.084Z,194.17
2024-05-09T06:36:40.450Z,194.83
2024-05-09T06:37:42.754Z,194.83
2024-05-09T06:38:49.929Z,194.83
2024-05-09T06:39:53.109Z,194.50
2024-05-09T06:40:55.414Z,192.33
2024-05-09T06:41:57.897Z,191.50
2024-05-09T06:43:00.169Z,190.17
2024-05-09T06:44:05.369Z,191.00
2024-05-09T06:45:11.104Z,192.00
2024-05-09T06:46:13.303Z,192.83
2024-05-09T06:47:15.757Z,193.50
2024-05-09T06:48:20.213Z,194.00
2024-05-09T06:49:22.940Z,193.17
2024-05-09T06:50:28.371Z,190.33
2024-05-09T06:51:36.668Z,179.17
2024-05-09T06:52:38.904Z,168.67
2024-05-09T06:53:41.299Z,160.83
2024-05-09T06:54:44.929Z,154.83
2024-05-09T06:55:51.813Z,148.00
2024-05-09T06:56:53.846Z,146.33
2024-05-09T06:57:56.046Z,144.67
2024-05-09T06:58:58.562Z,139.00
2024-05-09T07:00:01.103Z,131.50
2024-05-09T07:01:05.325Z,127.50
2024-05-09T07:02:07.495Z,127.50
2024-05-09T07:04:13.531Z,129.67
2024-05-09T07:05:16.035Z,131.83
2024-05-09T07:06:18.504Z,131.00
2024-05-09T07:07:20.869Z,128.00
2024-05-09T07:08:23.229Z,125.33
2024-05-09T07:09:25.630Z,124.67
2024-05-09T07:10:32.930Z,125.17
2024-05-09T07:11:37.982Z,126.67
2024-05-09T07:12:40.336Z,127.00
2024-05-09T07:13:42.876Z,128.00
2024-05-09T07:14:45.197Z,128.50
2024-05-09T07:15:50.123Z,129.00
2024-05-09T07:16:54.079Z,129.17
2024-05-09T07:17:57.992Z,130.33
2024-05-09T07:19:00.202Z,131.00
2024-05-09T07:20:08.995Z,129.33
2024-05-09T07:21:11.712Z,128.00
2024-05-09T07:22:14.822Z,128.33
2024-05-09T07:23:17.578Z,129.00
2024-05-09T07:24:20.157Z,129.00
2024-05-09T07:25:22.774Z,130.50
2024-05-09T07:26:25.173Z,132.83
2024-05-09T07:27:30.132Z,133.00
2024-05-09T07:28:33.439Z,133.33
2024-05-09T07:29:38.540Z,136.83
2024-05-09T07:30:43.671Z,150.33
2024-05-09T07:31:46.891Z,155.50
2024-05-09T07:32:52.091Z,153.00
2024-05-09T07:33:54.497Z,152.17
2024-05-09T07:34:56.901Z,150.67
2024-05-09T07:35:59.422Z,148.67
2024-05-09T07:37:01.804Z,146.50
2024-05-09T07:38:04.141Z,144.17
2024-05-09T07:39:07.554Z,142.50
2024-05-09T07:40:14.740Z,143.50
2024-05-09T07:41:23.289Z,146.00
2024-05-09T07:42:25.674Z,146.50
2024-05-09T07:43:28.061Z,146.00
2024-05-09T07:44:32.024Z,146.00
2024-05-09T07:47:44.967Z,145.33
2024-05-09T07:50:54.071Z,163.17
2024-05-09T07:53:22.015Z,163.83
2024-05-09T07:53:38.748Z,161.17
2024-05-09T07:54:44.293Z,153.67
2024-05-09T07:55:47.597Z,141.50
2024-05-09T07:56:50.833Z,136.17
2024-05-09T07:57:53.336Z,134.83
2024-05-09T07:58:55.906Z,125.50
2024-05-09T08:00:29.770Z,120.33
2024-05-09T08:01:34.199Z,121.67
2024-05-09T08:02:36.514Z,122.83
2024-05-09T08:03:39.614Z,122.17
2024-05-09T08:04:42.273Z,120.17
2024-05-09T08:05:44.705Z,121.33
2024-05-09T08:06:48.948Z,124.17
2024-05-09T08:07:54.180Z,126.00
2024-05-09T08:09:00.852Z,126.00
2024-05-09T08:10:08.137Z,123.17
2024-05-09T08:11:19.385Z,117.50
2024-05-09T08:12:21.688Z,113.17
2024-05-09T08:13:27.664Z,108.83
2024-05-09T08:14:32.634Z,104.33
2024-05-09T08:15:36.731Z,102.33
2024-05-09T08:16:43.703Z,97.83
2024-05-09T08:17:47.854Z,95.67
2024-05-09T08:18:50.633Z,95.17
2024-05-09T08:19:55.413Z,92.00
2024-05-09T08:20:57.859Z,94.67
2024-05-09T08:22:05.817Z,93.17
2024-05-09T08:23:08.083Z,91.33
2024-05-09T08:24:10.454Z,87.50
2024-05-09T08:25:14.581Z,80.67
2024-05-09T08:26:17.669Z,78.83
2024-05-09T08:27:19.968Z,78.67
2024-05-09T08:28:47.880Z,81.17
2024-05-09T08:29:56.043Z,84.50
2024-05-09T08:30:58.831Z,87.67
2024-05-09T08:32:01.817Z,87.50
2024-05-09T08:33:06.471Z,83.83
2024-05-09T08:34:10.754Z,82.50
2024-05-09T08:35:17.838Z,80.67
2024-05-09T08:36:20.191Z,80.00
2024-05-09T08:37:26.000Z,80.00
2024-05-09T08:38:32.175Z,80.00
2024-05-09T08:39:34.536Z,79.50
2024-05-09T08:40:38.095Z,78.67
2024-05-09T08:42:06.916Z,78.00
2024-05-09T08:43:14.498Z,78.00
2024-05-09T08:44:19.023Z,78.00
2024-05-09T08:45:25.338Z,78.00
2024-05-09T08:46:30.290Z,77.00
2024-05-09T08:47:37.334Z,75.67
2024-05-09T08:48:44.597Z,76.17
2024-05-09T08:49:50.595Z,77.67
2024-05-09T08:50:53.017Z,78.00
2024-05-09T08:51:58.782Z,76.17
2024-05-09T08:53:01.269Z,74.00
2024-05-09T08:54:07.860Z,73.33
2024-05-09T08:55:14.811Z,73.83
2024-05-09T08:56:20.339Z,73.50
2024-05-09T08:57:25.097Z,72.17
2024-05-09T08:58:38.239Z,71.00
2024-05-09T08:59:49.764Z,71.00
2024-05-09T09:00:55.629Z,71.50
2024-05-09T09:02:12.787Z,72.00
2024-05-09T09:03:19.953Z,72.00
2024-05-09T09:05:20.186Z,71.67
2024-05-09T09:06:24.567Z,73.33
2024-05-09T09:07:32.420Z,74.00
2024-05-09T09:08:41.464Z,74.00
2024-05-09T09:09:46.838Z,73.67
2024-05-09T09:10:59.182Z,73.00
2024-05-09T09:12:08.656Z,72.67
2024-05-09T09:13:14.831Z,72.00
2024-05-09T09:14:17.150Z,72.00
2024-05-09T09:15:20.494Z,71.33
2024-05-09T09:16:35.457Z,71.00
2024-05-09T09:17:40.965Z,69.00
2024-05-09T09:18:45.235Z,66.50
2024-05-09T09:19:47.659Z,64.33
2024-05-09T09:20:50.418Z,62.83
2024-05-09T09:21:52.740Z,62.00
2024-05-09T09:22:57.657Z,61.50
2024-05-09T09:23:59.992Z,62.00
2024-05-09T09:25:10.205Z,62.00
2024-05-09T09:26:15.789Z,62.00
2024-05-09T09:27:18.527Z,62.00
2024-05-09T09:28:21.983Z,62.00
2024-05-09T09:29:49.333Z,62.83
2024-05-09T09:31:00.352Z,63.00
2024-05-09T09:32:04.282Z,102.50
2024-05-09T09:33:10.763Z,106.17
2024-05-09T09:34:13.862Z,114.50
2024-05-09T09:35:16.391Z,108.50
2024-05-09T09:36:19.466Z,96.50
2024-05-09T09:37:33.780Z,93.50
2024-05-09T09:38:38.547Z,78.83
2024-05-09T09:39:43.755Z,66.67
2024-05-09T09:40:53.503Z,62.00
2024-05-09T09:41:59.729Z,58.50
2024-05-09T09:43:05.942Z,57.67
2024-05-09T09:44:11.141Z,58.67
2024-05-09T09:45:16.399Z,57.17
2024-05-09T09:46:45.076Z,55.00
2024-05-09T09:47:58.306Z,55.00
2024-05-09T09:49:01.635Z,54.67
2024-05-09T09:50:11.831Z,54.00
2024-05-09T09:51:20.227Z,53.50
2024-05-09T09:52:23.755Z,51.17
2024-05-09T09:53:32.203Z,48.33
2024-05-09T09:54:34.884Z,48.17
2024-05-09T09:55:40.633Z,49.00
2024-05-09T09:56:44.510Z,48.00
2024-05-09T09:57:48.313Z,48.00
2024-05-09T09:59:00.356Z,47.17
2024-05-09T10:00:04.305Z,47.00
2024-05-09T10:01:16.376Z,47.50
2024-05-09T10:02:19.019Z,48.00
2024-05-09T10:03:21.752Z,48.00
2024-05-09T10:04:48.770Z,47.67
2024-05-09T10:05:53.058Z,46.17
2024-05-09T10:07:04.365Z,44.50
2024-05-09T10:08:09.447Z,43.00
2024-05-09T10:09:36.453Z,41.33
2024-05-09T10:10:38.978Z,39.00
2024-05-09T10:11:49.240Z,39.00
2024-05-09T10:13:03.823Z,39.00
2024-05-09T10:14:07.406Z,39.00
2024-05-09T10:15:10.142Z,40.00
2024-05-09T10:16:19.011Z,40.00
2024-05-09T10:17:24.518Z,40.00
2024-05-09T10:18:37.043Z,40.00
2024-05-09T10:19:47.083Z,41.00
2024-05-09T10:20:53.346Z,41.00
2024-05-09T10:22:05.717Z,41.00
2024-05-09T10:23:26.985Z,41.00
2024-05-09T10:24:51.396Z,40.67
2024-05-09T10:26:00.430Z,40.00
2024-05-09T10:27:05.653Z,40.00
2024-05-09T10:28:14.766Z,40.00
2024-05-09T10:29:18.505Z,40.00
2024-05-09T10:30:29.610Z,40.00
2024-05-09T10:31:46.459Z,40.00
2024-05-09T10:32:52.562Z,40.00
2024-05-09T10:34:20.730Z,40.00
2024-05-09T10:35:25.505Z,40.00
2024-05-09T10:36:28.748Z,40.83
2024-05-09T10:37:32.054Z,41.00
2024-05-09T10:38:35.412Z,41.17
2024-05-09T10:39:38.469Z,42.33
2024-05-09T10:40:50.238Z,43.00
2024-05-09T10:41:55.666Z,43.00
2024-05-09T10:43:05.617Z,43.00
2024-05-09T10:44:16.085Z,43.00
2024-05-09T10:45:18.488Z,42.17
2024-05-09T10:46:21.226Z,42.00
2024-05-09T10:47:25.464Z,42.00
2024-05-09T10:48:29.918Z,42.17
2024-05-09T10:49:39.911Z,44.00
2024-05-09T10:50:45.851Z,46.00
2024-05-09T10:51:48.489Z,46.00
2024-05-09T10:52:54.393Z,46.00
2024-05-09T10:53:57.933Z,45.50
2024-05-09T10:55:01.648Z,45.00
2024-05-09T10:56:08.459Z,45.00
2024-05-09T10:57:11.565Z,44.67
2024-05-09T10:58:17.115Z,44.00
2024-05-09T10:59:19.756Z,44.00
2024-05-09T11:00:27.805Z,43.17
2024-05-09T11:01:36.372Z,42.00
2024-05-09T11:02:40.161Z,42.00
2024-05-09T11:03:50.426Z,41.00
2024-05-09T11:04:53.931Z,40.00
2024-05-09T11:05:56.611Z,40.00
2024-05-09T11:07:05.478Z,39.00
2024-05-09T11:08:09.071Z,37.50
2024-05-09T11:09:11.444Z,37.00
2024-05-09T11:10:17.821Z,36.33
2024-05-09T11:11:25.270Z,36.00
2024-05-09T11:12:30.311Z,35.50
2024-05-09T11:13:38.531Z,35.00
2024-05-09T11:14:51.682Z,35.83
2024-05-09T11:15:54.194Z,36.00
2024-05-09T11:17:09.680Z,35.33
2024-05-09T11:18:24.931Z,35.83
2024-05-09T11:19:32.268Z,36.00
2024-05-09T11:20:35.712Z,36.00
2024-05-09T11:21:38.975Z,36.00
2024-05-09T11:22:41.743Z,36.17
2024-05-09T11:23:44.318Z,37.00
2024-05-09T11:24:47.745Z,37.33
2024-05-09T11:25:57.334Z,38.00
2024-05-09T11:27:03.466Z,38.17
2024-05-09T11:28:06.368Z,39.00
2024-05-09T11:29:08.618Z,38.17
2024-05-09T11:30:34.102Z,38.00
2024-05-09T11:31:46.326Z,39.00
2024-05-09T11:32:49.839Z,40.67
2024-05-09T11:33:53.387Z,41.83
2024-05-09T11:34:56.771Z,42.00
2024-05-09T11:35:59.027Z,42.00
2024-05-09T11:37:01.197Z,42.00
2024-05-09T11:38:04.119Z,42.00
2024-05-09T11:39:06.614Z,42.00
2024-05-09T11:40:16.838Z,42.00
2024-05-09T11:41:23.491Z,41.33
2024-05-09T11:42:29.276Z,39.33
2024-05-09T11:43:32.046Z,37.17
2024-05-09T11:44:34.383Z,34.83
2024-05-09T11:45:46.013Z,33.50
2024-05-09T11:46:51.684Z,33.00
2024-05-09T11:47:54.173Z,33.00
2024-05-09T11:48:56.703Z,33.33
2024-05-09T11:50:01.238Z,34.67
2024-05-09T11:51:04.143Z,35.83
2024-05-09T11:52:06.412Z,36.17
2024-05-09T11:53:08.691Z,37.00
2024-05-09T11:54:14.984Z,37.00
2024-05-09T11:55:17.615Z,37.00
2024-05-09T11:56:21.085Z,37.00
2024-05-09T11:57:26.880Z,36.67
2024-05-09T11:58:33.164Z,35.33
2024-05-09T11:59:36.321Z,34.17
2024-05-09T12:00:38.594Z,34.00
2024-05-09T12:01:41.279Z,35.33
2024-05-09T12:02:43.753Z,38.83
2024-05-09T12:03:49.604Z,41.00
2024-05-09T12:04:52.088Z,41.00
2024-05-09T12:05:54.321Z,40.83
2024-05-09T12:06:56.763Z,40.00
2024-05-09T12:07:59.725Z,40.00
2024-05-09T12:09:01.986Z,40.00
2024-05-09T12:10:11.953Z,40.00
2024-05-09T12:11:19.607Z,40.83
2024-05-09T12:12:21.644Z,41.00
2024-05-09T12:13:24.130Z,41.00
2024-05-09T12:14:26.524Z,41.83
2024-05-09T12:15:28.997Z,43.00
2024-05-09T12:16:34.931Z,43.00
2024-05-09T12:17:37.928Z,43.00
2024-05-09T12:18:40.355Z,43.00
2024-05-09T12:19:42.806Z,43.00
2024-05-09T12:20:44.913Z,43.00
2024-05-09T12:22:13.230Z,42.50
2024-05-09T12:23:19.713Z,42.00
2024-05-09T12:24:23.907Z,42.67
2024-05-09T12:25:26.290Z,43.00
2024-05-09T12:26:29.092Z,43.00
2024-05-09T12:27:36.078Z,43.00
2024-05-09T12:28:39.739Z,43.00
2024-05-09T12:29:42.081Z,43.00
2024-05-09T12:30:44.546Z,43.00
2024-05-09T12:31:47.806Z,43.00
2024-05-09T12:32:50.398Z,43.00
2024-05-09T12:33:56.744Z,43.00
2024-05-09T12:34:59.727Z,43.00
2024-05-09T12:36:01.988Z,43.00
2024-05-09T12:37:32.223Z,43.00
2024-05-09T12:38:34.874Z,42.00
2024-05-09T12:39:37.196Z,41.50
2024-05-09T12:40:42.487Z,40.33
2024-05-09T12:41:44.897Z,40.00
2024-05-09T12:42:47.191Z,40.00
2024-05-09T12:43:49.489Z,40.00
2024-05-09T12:44:51.779Z,40.00
2024-05-09T12:45:54.270Z,42.00
2024-05-09T12:46:56.594Z,46.50
2024-05-09T12:47:59.841Z,46.00
2024-05-09T12:49:02.565Z,46.00
2024-05-09T12:50:08.318Z,46.00
2024-05-09T12:51:15.801Z,46.50
2024-05-09T12:52:23.216Z,47.00
2024-05-09T12:53:25.555Z,47.00
2024-05-09T12:54:30.697Z,46.17
2024-05-09T12:55:40.152Z,45.83
2024-05-09T12:56:50.306Z,44.50
2024-05-09T12:57:54.290Z,43.17
2024-05-09T12:58:59.709Z,41.83
2024-05-09T13:00:09.346Z,41.00
2024-05-09T13:01:16.001Z,40.33
2024-05-09T13:02:21.764Z,40.00
2024-05-09T13:03:50.108Z,40.00
2024-05-09T13:04:55.868Z,40.00
2024-05-09T13:05:58.475Z,40.00
2024-05-09T13:07:04.296Z,40.17
2024-05-09T13:08:10.875Z,42.33
2024-05-09T13:09:15.172Z,46.50
2024-05-09T13:10:25.553Z,47.33
2024-05-09T13:11:35.898Z,47.00
2024-05-09T13:13:03.389Z,46.17
2024-05-09T13:14:05.783Z,44.67
2024-05-09T13:15:11.534Z,43.67
2024-05-09T13:16:17.075Z,42.50
2024-05-09T13:17:20.262Z,41.17
2024-05-09T13:18:22.626Z,41.00
2024-05-09T13:19:24.903Z,40.33
2024-05-09T13:20:32.460Z,40.83
2024-05-09T13:21:36.659Z,41.00
2024-05-09T13:22:43.275Z,41.00
2024-05-09T13:23:45.949Z,41.00
2024-05-09T13:24:51.218Z,41.00
2024-05-09T13:25:53.965Z,41.00
2024-05-09T13:26:56.307Z,42.50
2024-05-09T13:27:59.132Z,58.17
2024-05-09T13:29:04.714Z,59.17
2024-05-09T13:30:14.545Z,56.17
2024-05-09T13:31:20.249Z,54.00
2024-05-09T13:32:23.075Z,51.83
2024-05-09T13:33:50.267Z,49.83
2024-05-09T13:34:53.852Z,46.67
2024-05-09T13:35:56.828Z,44.50
2024-05-09T13:36:59.514Z,41.67
2024-05-09T13:38:03.111Z,39.50
2024-05-09T13:39:05.891Z,38.50
2024-05-09T13:40:12.031Z,37.33
2024-05-09T13:41:17.735Z,36.00
2024-05-09T13:42:48.951Z,36.00
2024-05-09T13:43:52.602Z,36.00
2024-05-09T13:44:55.027Z,36.83
2024-05-09T13:46:01.275Z,39.83
2024-05-09T13:47:08.385Z,43.00
2024-05-09T13:48:13.240Z,45.00
2024-05-09T13:49:16.079Z,47.83
2024-05-09T13:50:27.975Z,49.17
2024-05-09T13:51:36.894Z,50.50
2024-05-09T13:52:40.715Z,50.83
2024-05-09T13:53:42.989Z,50.00
2024-05-09T13:54:45.406Z,48.50
2024-05-09T13:55:50.314Z,45.50
2024-05-09T13:56:52.652Z,44.00
2024-05-09T13:57:55.192Z,43.50
2024-05-09T13:58:58.008Z,43.67
2024-05-09T14:00:00.288Z,43.83
2024-05-09T14:01:03.111Z,43.00
2024-05-09T14:02:07.157Z,42.50
2024-05-09T14:03:09.872Z,41.33
2024-05-09T14:04:14.692Z,41.00
2024-05-09T14:05:18.380Z,41.00
2024-05-09T14:06:21.010Z,41.00
2024-05-09T14:07:24.875Z,40.50
2024-05-09T14:08:28.941Z,40.00
2024-05-09T14:09:32.324Z,40.00
2024-05-09T14:10:42.154Z,39.83
2024-05-09T14:11:44.480Z,38.83
2024-05-09T14:12:49.795Z,37.50